sensor_id;sensor_type;location;lat;lon;timestamp;pressure;altitude;pressure_sealevel;temperature;humidity
61359;BME280;47228;46.762;23.598;2023-05-19T00:00:16;97675.38;;;13.39;82.77
61359;BME280;47228;46.762;23.598;2023-05-19T00:03:05;97669.13;;;13.34;82.90
61359;BME280;47228;46.762;23.598;2023-05-19T00:05:36;97670.73;;;13.31;82.92
61359;BME280;47228;46.762;23.598;2023-05-19T00:08:09;97673.29;;;13.29;82.98
61359;BME280;47228;46.762;23.598;2023-05-19T00:10:37;97670.36;;;13.25;82.99
61359;BME280;47228;46.762;23.598;2023-05-19T00:13:06;97669.59;;;13.22;83.13
61359;BME280;47228;46.762;23.598;2023-05-19T00:15:35;97671.35;;;13.21;83.47
61359;BME280;47228;46.762;23.598;2023-05-19T00:18:03;97671.48;;;13.20;83.51
61359;BME280;47228;46.762;23.598;2023-05-19T00:20:31;97672.45;;;13.17;83.25
61359;BME280;47228;46.762;23.598;2023-05-19T00:23:00;97671.92;;;13.14;83.42
61359;BME280;47228;46.762;23.598;2023-05-19T00:25:28;97674.07;;;13.12;83.59
61359;BME280;47228;46.762;23.598;2023-05-19T00:27:56;97675.15;;;13.08;83.74
61359;BME280;47228;46.762;23.598;2023-05-19T00:30:26;97674.63;;;13.03;83.66
61359;BME280;47228;46.762;23.598;2023-05-19T00:32:54;97674.60;;;13.00;83.76
61359;BME280;47228;46.762;23.598;2023-05-19T00:35:23;97670.52;;;12.97;84.05
61359;BME280;47228;46.762;23.598;2023-05-19T00:37:51;97669.09;;;12.95;83.99
61359;BME280;47228;46.762;23.598;2023-05-19T00:40:19;97674.30;;;12.94;84.19
61359;BME280;47228;46.762;23.598;2023-05-19T00:42:47;97676.36;;;12.91;84.15
61359;BME280;47228;46.762;23.598;2023-05-19T00:45:15;97679.20;;;12.87;84.18
61359;BME280;47228;46.762;23.598;2023-05-19T00:47:43;97676.79;;;12.85;84.26
61359;BME280;47228;46.762;23.598;2023-05-19T00:50:11;97676.59;;;12.87;84.48
61359;BME280;47228;46.762;23.598;2023-05-19T00:52:39;97679.23;;;12.86;84.59
61359;BME280;47228;46.762;23.598;2023-05-19T00:55:07;97682.61;;;12.85;84.31
61359;BME280;47228;46.762;23.598;2023-05-19T00:57:37;97682.86;;;12.84;84.40
61359;BME280;47228;46.762;23.598;2023-05-19T01:00:06;97686.29;;;12.80;84.24
61359;BME280;47228;46.762;23.598;2023-05-19T01:02:35;97693.70;;;12.79;84.47
61359;BME280;47228;46.762;23.598;2023-05-19T01:05:07;97696.94;;;12.79;84.24
61359;BME280;47228;46.762;23.598;2023-05-19T01:07:36;97693.66;;;12.77;84.20
61359;BME280;47228;46.762;23.598;2023-05-19T01:10:04;97694.85;;;12.76;84.33
61359;BME280;47228;46.762;23.598;2023-05-19T01:12:34;97693.80;;;12.75;84.44
61359;BME280;47228;46.762;23.598;2023-05-19T01:15:03;97694.34;;;12.71;84.56
61359;BME280;47228;46.762;23.598;2023-05-19T01:17:34;97694.56;;;12.66;84.42
61359;BME280;47228;46.762;23.598;2023-05-19T01:20:15;97697.84;;;12.66;84.79
61359;BME280;47228;46.762;23.598;2023-05-19T01:31:24;97695.21;;;12.65;85.68
61359;BME280;47228;46.762;23.598;2023-05-19T01:33:54;97697.30;;;12.63;86.07
61359;BME280;47228;46.762;23.598;2023-05-19T01:36:25;97702.20;;;12.61;86.30
61359;BME280;47228;46.762;23.598;2023-05-19T01:38:59;97702.92;;;12.62;86.32
61359;BME280;47228;46.762;23.598;2023-05-19T01:41:27;97700.75;;;12.65;86.27
61359;BME280;47228;46.762;23.598;2023-05-19T01:43:57;97699.55;;;12.68;85.92
61359;BME280;47228;46.762;23.598;2023-05-19T01:46:25;97702.91;;;12.69;85.84
61359;BME280;47228;46.762;23.598;2023-05-19T01:48:53;97697.91;;;12.69;86.04
61359;BME280;47228;46.762;23.598;2023-05-19T01:51:21;97695.87;;;12.67;86.15
61359;BME280;47228;46.762;23.598;2023-05-19T01:53:49;97700.27;;;12.66;86.15
61359;BME280;47228;46.762;23.598;2023-05-19T01:56:29;97697.02;;;12.67;86.01
61359;BME280;47228;46.762;23.598;2023-05-19T01:59:11;97695.14;;;12.63;86.08
61359;BME280;47228;46.762;23.598;2023-05-19T02:01:50;97697.52;;;12.63;86.25
61359;BME280;47228;46.762;23.598;2023-05-19T02:04:42;97696.27;;;12.65;86.35
61359;BME280;47228;46.762;23.598;2023-05-19T02:07:40;97693.66;;;12.66;86.23
61359;BME280;47228;46.762;23.598;2023-05-19T02:10:22;97696.44;;;12.67;86.22
61359;BME280;47228;46.762;23.598;2023-05-19T02:12:52;97694.85;;;12.67;86.17
61359;BME280;47228;46.762;23.598;2023-05-19T02:15:23;97687.34;;;12.66;86.16
61359;BME280;47228;46.762;23.598;2023-05-19T02:17:54;97688.69;;;12.62;86.28
61359;BME280;47228;46.762;23.598;2023-05-19T02:20:22;97690.27;;;12.59;86.30
61359;BME280;47228;46.762;23.598;2023-05-19T02:22:50;97690.89;;;12.58;86.28
61359;BME280;47228;46.762;23.598;2023-05-19T02:25:18;97688.39;;;12.55;86.46
61359;BME280;47228;46.762;23.598;2023-05-19T02:27:47;97695.08;;;12.53;86.79
61359;BME280;47228;46.762;23.598;2023-05-19T02:30:15;97697.13;;;12.52;87.02
61359;BME280;47228;46.762;23.598;2023-05-19T02:32:43;97702.91;;;12.50;87.14
61359;BME280;47228;46.762;23.598;2023-05-19T02:35:14;97706.71;;;12.51;87.50
61359;BME280;47228;46.762;23.598;2023-05-19T02:37:42;97710.77;;;12.52;87.60
61359;BME280;47228;46.762;23.598;2023-05-19T02:40:11;97713.02;;;12.56;87.90
61359;BME280;47228;46.762;23.598;2023-05-19T02:42:38;97717.06;;;12.56;87.73
61359;BME280;47228;46.762;23.598;2023-05-19T02:45:07;97715.72;;;12.58;87.73
61359;BME280;47228;46.762;23.598;2023-05-19T02:47:35;97720.96;;;12.63;87.72
61359;BME280;47228;46.762;23.598;2023-05-19T02:50:05;97723.54;;;12.69;87.74
61359;BME280;47228;46.762;23.598;2023-05-19T02:52:33;97727.02;;;12.73;87.50
61359;BME280;47228;46.762;23.598;2023-05-19T02:55:01;97725.89;;;12.76;87.14
61359;BME280;47228;46.762;23.598;2023-05-19T02:57:29;97723.16;;;12.74;86.79
61359;BME280;47228;46.762;23.598;2023-05-19T02:59:58;97720.91;;;12.71;86.54
61359;BME280;47228;46.762;23.598;2023-05-19T03:02:26;97719.94;;;12.66;86.71
61359;BME280;47228;46.762;23.598;2023-05-19T03:04:54;97718.83;;;12.64;86.99
61359;BME280;47228;46.762;23.598;2023-05-19T03:07:22;97716.91;;;12.62;86.80
61359;BME280;47228;46.762;23.598;2023-05-19T03:09:52;97717.98;;;12.60;86.72
61359;BME280;47228;46.762;23.598;2023-05-19T03:12:20;97723.64;;;12.58;86.92
61359;BME280;47228;46.762;23.598;2023-05-19T03:14:48;97724.58;;;12.56;87.03
61359;BME280;47228;46.762;23.598;2023-05-19T03:17:16;97729.13;;;12.53;87.07
61359;BME280;47228;46.762;23.598;2023-05-19T03:19:44;97730.77;;;12.53;87.28
61359;BME280;47228;46.762;23.598;2023-05-19T03:22:12;97731.23;;;12.52;87.24
61359;BME280;47228;46.762;23.598;2023-05-19T03:24:40;97733.36;;;12.50;87.26
61359;BME280;47228;46.762;23.598;2023-05-19T03:27:08;97736.60;;;12.47;87.11
61359;BME280;47228;46.762;23.598;2023-05-19T03:29:37;97736.92;;;12.44;87.27
61359;BME280;47228;46.762;23.598;2023-05-19T03:32:05;97730.79;;;12.40;87.15
61359;BME280;47228;46.762;23.598;2023-05-19T03:34:33;97732.79;;;12.37;87.25
61359;BME280;47228;46.762;23.598;2023-05-19T03:37:02;97734.09;;;12.36;87.57
61359;BME280;47228;46.762;23.598;2023-05-19T03:39:30;97735.33;;;12.35;87.45
61359;BME280;47228;46.762;23.598;2023-05-19T03:41:58;97737.30;;;12.36;87.74
61359;BME280;47228;46.762;23.598;2023-05-19T03:44:26;97742.63;;;12.39;87.68
61359;BME280;47228;46.762;23.598;2023-05-19T03:46:54;97744.92;;;12.42;87.56
61359;BME280;47228;46.762;23.598;2023-05-19T03:49:22;97749.71;;;12.44;87.40
61359;BME280;47228;46.762;23.598;2023-05-19T03:51:50;97753.86;;;12.48;87.58
61359;BME280;47228;46.762;23.598;2023-05-19T03:54:18;97750.62;;;12.51;87.28
61359;BME280;47228;46.762;23.598;2023-05-19T03:56:48;97754.30;;;12.54;87.32
61359;BME280;47228;46.762;23.598;2023-05-19T03:59:15;97752.08;;;12.57;87.46
61359;BME280;47228;46.762;23.598;2023-05-19T04:01:44;97746.98;;;12.62;87.52
61359;BME280;47228;46.762;23.598;2023-05-19T04:04:13;97746.51;;;12.66;87.29
61359;BME280;47228;46.762;23.598;2023-05-19T04:06:41;97744.36;;;12.67;87.32
61359;BME280;47228;46.762;23.598;2023-05-19T04:09:12;97741.30;;;12.66;87.38
61359;BME280;47228;46.762;23.598;2023-05-19T04:11:41;97739.45;;;12.65;87.54
61359;BME280;47228;46.762;23.598;2023-05-19T04:14:09;97738.59;;;12.67;87.64
61359;BME280;47228;46.762;23.598;2023-05-19T04:16:37;97743.13;;;12.70;87.91
61359;BME280;47228;46.762;23.598;2023-05-19T04:19:05;97749.02;;;12.75;87.95
61359;BME280;47228;46.762;23.598;2023-05-19T04:21:34;97751.48;;;12.78;87.62
61359;BME280;47228;46.762;23.598;2023-05-19T04:24:01;97758.83;;;12.81;87.67
61359;BME280;47228;46.762;23.598;2023-05-19T04:26:33;97764.54;;;12.89;87.91
61359;BME280;47228;46.762;23.598;2023-05-19T04:29:01;97762.02;;;12.96;87.54
61359;BME280;47228;46.762;23.598;2023-05-19T04:31:31;97759.55;;;13.02;87.53
61359;BME280;47228;46.762;23.598;2023-05-19T04:34:01;97756.86;;;13.11;87.48
61359;BME280;47228;46.762;23.598;2023-05-19T04:36:29;97758.19;;;13.21;87.27
61359;BME280;47228;46.762;23.598;2023-05-19T04:38:57;97756.05;;;13.31;87.10
61359;BME280;47228;46.762;23.598;2023-05-19T04:41:28;97753.69;;;13.41;86.53
61359;BME280;47228;46.762;23.598;2023-05-19T04:43:56;97755.46;;;13.49;86.20
61359;BME280;47228;46.762;23.598;2023-05-19T04:46:26;97751.02;;;13.54;85.71
61359;BME280;47228;46.762;23.598;2023-05-19T04:48:54;97750.39;;;13.57;85.23
61359;BME280;47228;46.762;23.598;2023-05-19T04:51:23;97754.61;;;13.61;84.89
61359;BME280;47228;46.762;23.598;2023-05-19T04:53:57;97760.25;;;13.65;84.77
61359;BME280;47228;46.762;23.598;2023-05-19T04:56:25;97756.33;;;13.67;84.59
61359;BME280;47228;46.762;23.598;2023-05-19T04:58:54;97758.53;;;13.72;84.58
61359;BME280;47228;46.762;23.598;2023-05-19T05:01:22;97757.78;;;13.75;84.27
61359;BME280;47228;46.762;23.598;2023-05-19T05:03:53;97760.67;;;13.77;83.85
61359;BME280;47228;46.762;23.598;2023-05-19T05:06:22;97762.86;;;13.78;83.67
61359;BME280;47228;46.762;23.598;2023-05-19T05:08:51;97765.79;;;13.80;83.86
61359;BME280;47228;46.762;23.598;2023-05-19T05:11:19;97770.91;;;13.85;84.02
61359;BME280;47228;46.762;23.598;2023-05-19T05:13:48;97772.07;;;13.89;83.65
61359;BME280;47228;46.762;23.598;2023-05-19T05:16:17;97770.17;;;13.91;83.16
61359;BME280;47228;46.762;23.598;2023-05-19T05:18:46;97764.61;;;13.94;82.71
61359;BME280;47228;46.762;23.598;2023-05-19T05:21:14;97764.83;;;13.98;82.21
61359;BME280;47228;46.762;23.598;2023-05-19T05:23:42;97771.16;;;13.98;81.87
61359;BME280;47228;46.762;23.598;2023-05-19T05:26:17;97778.70;;;14.00;81.57
61359;BME280;47228;46.762;23.598;2023-05-19T05:28:49;97778.39;;;14.04;81.71
61359;BME280;47228;46.762;23.598;2023-05-19T05:31:17;97778.23;;;14.09;81.71
61359;BME280;47228;46.762;23.598;2023-05-19T05:33:45;97776.42;;;14.15;81.74
61359;BME280;47228;46.762;23.598;2023-05-19T05:36:13;97775.23;;;14.23;82.09
61359;BME280;47228;46.762;23.598;2023-05-19T05:38:41;97776.08;;;14.29;81.66
61359;BME280;47228;46.762;23.598;2023-05-19T05:41:09;97783.22;;;14.36;81.16
61359;BME280;47228;46.762;23.598;2023-05-19T05:43:37;97781.90;;;14.43;80.81
61359;BME280;47228;46.762;23.598;2023-05-19T05:46:05;97780.54;;;14.47;80.52
61359;BME280;47228;46.762;23.598;2023-05-19T05:48:34;97786.83;;;14.53;80.45
61359;BME280;47228;46.762;23.598;2023-05-19T05:51:02;97787.69;;;14.58;79.99
61359;BME280;47228;46.762;23.598;2023-05-19T05:53:34;97785.84;;;14.63;80.25
61359;BME280;47228;46.762;23.598;2023-05-19T05:56:05;97781.48;;;14.69;80.55
61359;BME280;47228;46.762;23.598;2023-05-19T05:58:34;97784.84;;;14.76;80.45
61359;BME280;47228;46.762;23.598;2023-05-19T06:01:04;97785.15;;;14.84;80.17
61359;BME280;47228;46.762;23.598;2023-05-19T06:03:32;97785.32;;;14.92;80.23
61359;BME280;47228;46.762;23.598;2023-05-19T06:06:00;97785.57;;;15.00;79.91
61359;BME280;47228;46.762;23.598;2023-05-19T06:08:28;97783.05;;;15.05;79.36
61359;BME280;47228;46.762;23.598;2023-05-19T06:10:56;97786.69;;;15.11;79.36
61359;BME280;47228;46.762;23.598;2023-05-19T06:13:25;97787.91;;;15.20;79.53
61359;BME280;47228;46.762;23.598;2023-05-19T06:15:53;97788.38;;;15.31;79.65
61359;BME280;47228;46.762;23.598;2023-05-19T06:18:21;97786.55;;;15.42;78.93
61359;BME280;47228;46.762;23.598;2023-05-19T06:20:49;97789.03;;;15.52;78.82
61359;BME280;47228;46.762;23.598;2023-05-19T06:23:17;97793.50;;;15.61;78.51
61359;BME280;47228;46.762;23.598;2023-05-19T06:25:45;97795.54;;;15.69;78.10
61359;BME280;47228;46.762;23.598;2023-05-19T06:28:13;97796.85;;;15.76;77.54
61359;BME280;47228;46.762;23.598;2023-05-19T06:30:41;97795.59;;;15.83;77.56
61359;BME280;47228;46.762;23.598;2023-05-19T06:33:09;97793.13;;;15.91;76.80
61359;BME280;47228;46.762;23.598;2023-05-19T06:35:37;97798.70;;;15.93;76.37
61359;BME280;47228;46.762;23.598;2023-05-19T06:38:05;97797.48;;;15.95;76.27
61359;BME280;47228;46.762;23.598;2023-05-19T06:40:33;97797.22;;;15.97;76.10
61359;BME280;47228;46.762;23.598;2023-05-19T06:43:01;97793.63;;;15.98;75.73
61359;BME280;47228;46.762;23.598;2023-05-19T06:45:30;97794.02;;;16.02;75.80
61359;BME280;47228;46.762;23.598;2023-05-19T06:47:58;97793.75;;;16.12;75.97
61359;BME280;47228;46.762;23.598;2023-05-19T06:50:26;97796.66;;;16.25;75.94
61359;BME280;47228;46.762;23.598;2023-05-19T06:52:54;97789.83;;;16.35;75.22
61359;BME280;47228;46.762;23.598;2023-05-19T06:55:23;97791.45;;;16.45;75.13
61359;BME280;47228;46.762;23.598;2023-05-19T06:57:51;97794.48;;;16.53;74.81
61359;BME280;47228;46.762;23.598;2023-05-19T07:00:19;97794.35;;;16.61;73.90
61359;BME280;47228;46.762;23.598;2023-05-19T07:02:50;97796.13;;;16.66;73.55
61359;BME280;47228;46.762;23.598;2023-05-19T07:05:18;97797.33;;;16.72;73.55
61359;BME280;47228;46.762;23.598;2023-05-19T07:07:46;97797.18;;;16.77;73.48
61359;BME280;47228;46.762;23.598;2023-05-19T07:10:14;97798.08;;;16.83;73.26
61359;BME280;47228;46.762;23.598;2023-05-19T07:12:42;97802.01;;;16.90;72.87
61359;BME280;47228;46.762;23.598;2023-05-19T07:15:10;97802.80;;;16.97;72.65
61359;BME280;47228;46.762;23.598;2023-05-19T07:17:38;97805.60;;;17.05;72.37
61359;BME280;47228;46.762;23.598;2023-05-19T07:20:07;97805.75;;;17.11;71.80
61359;BME280;47228;46.762;23.598;2023-05-19T07:22:38;97806.29;;;17.16;71.23
61359;BME280;47228;46.762;23.598;2023-05-19T07:25:07;97804.62;;;17.23;71.43
61359;BME280;47228;46.762;23.598;2023-05-19T07:27:34;97801.30;;;17.33;71.44
61359;BME280;47228;46.762;23.598;2023-05-19T07:30:03;97799.73;;;17.46;71.23
61359;BME280;47228;46.762;23.598;2023-05-19T07:32:32;97799.27;;;17.59;70.52
61359;BME280;47228;46.762;23.598;2023-05-19T07:35:00;97803.03;;;17.70;69.80
61359;BME280;47228;46.762;23.598;2023-05-19T07:37:28;97801.60;;;17.82;68.76
61359;BME280;47228;46.762;23.598;2023-05-19T07:39:56;97801.45;;;17.95;68.24
61359;BME280;47228;46.762;23.598;2023-05-19T07:42:24;97799.67;;;18.09;68.51
61359;BME280;47228;46.762;23.598;2023-05-19T07:44:52;97797.46;;;18.23;68.57
61359;BME280;47228;46.762;23.598;2023-05-19T07:47:19;97794.13;;;18.36;67.22
61359;BME280;47228;46.762;23.598;2023-05-19T07:49:47;97793.73;;;18.48;67.75
61359;BME280;47228;46.762;23.598;2023-05-19T07:52:18;97795.77;;;18.57;67.15
61359;BME280;47228;46.762;23.598;2023-05-19T07:54:46;97795.19;;;18.62;66.22
61359;BME280;47228;46.762;23.598;2023-05-19T07:57:14;97792.39;;;18.61;64.96
61359;BME280;47228;46.762;23.598;2023-05-19T07:59:42;97791.13;;;18.60;63.95
61359;BME280;47228;46.762;23.598;2023-05-19T08:02:10;97786.94;;;18.57;64.66
61359;BME280;47228;46.762;23.598;2023-05-19T08:04:38;97785.08;;;18.62;66.13
61359;BME280;47228;46.762;23.598;2023-05-19T08:07:06;97783.90;;;18.73;66.78
61359;BME280;47228;46.762;23.598;2023-05-19T08:09:34;97787.44;;;18.90;67.54
61359;BME280;47228;46.762;23.598;2023-05-19T08:12:02;97787.45;;;19.10;66.66
61359;BME280;47228;46.762;23.598;2023-05-19T08:14:31;97788.56;;;19.32;66.95
61359;BME280;47228;46.762;23.598;2023-05-19T08:17:01;97785.42;;;19.54;66.31
61359;BME280;47228;46.762;23.598;2023-05-19T08:19:29;97788.44;;;19.73;65.08
61359;BME280;47228;46.762;23.598;2023-05-19T08:21:57;97786.56;;;19.93;64.69
61359;BME280;47228;46.762;23.598;2023-05-19T08:24:27;97793.73;;;20.14;64.04
61359;BME280;47228;46.762;23.598;2023-05-19T08:27:00;97791.67;;;20.30;62.17
61359;BME280;47228;46.762;23.598;2023-05-19T08:29:28;97787.17;;;20.41;60.67
61359;BME280;47228;46.762;23.598;2023-05-19T08:31:56;97788.20;;;20.55;61.29
61359;BME280;47228;46.762;23.598;2023-05-19T08:34:25;97787.39;;;20.69;61.17
61359;BME280;47228;46.762;23.598;2023-05-19T08:36:53;97783.06;;;20.83;60.10
61359;BME280;47228;46.762;23.598;2023-05-19T08:39:24;97784.09;;;20.88;59.65
61359;BME280;47228;46.762;23.598;2023-05-19T08:41:53;97790.20;;;20.99;61.13
61359;BME280;47228;46.762;23.598;2023-05-19T08:44:22;97795.98;;;21.17;61.03
61359;BME280;47228;46.762;23.598;2023-05-19T08:46:50;97798.13;;;21.36;61.16
61359;BME280;47228;46.762;23.598;2023-05-19T08:49:26;97799.65;;;21.52;59.85
61359;BME280;47228;46.762;23.598;2023-05-19T08:57:37;97808.16;;;21.82;59.06
61359;BME280;47228;46.762;23.598;2023-05-19T09:00:05;97809.13;;;21.81;58.93
61359;BME280;47228;46.762;23.598;2023-05-19T09:02:38;97810.34;;;21.74;58.77
61359;BME280;47228;46.762;23.598;2023-05-19T09:05:28;97808.32;;;21.72;59.17
61359;BME280;47228;46.762;23.598;2023-05-19T09:07:56;97800.64;;;21.80;59.44
61359;BME280;47228;46.762;23.598;2023-05-19T09:10:24;97797.27;;;21.93;58.78
61359;BME280;47228;46.762;23.598;2023-05-19T09:12:56;97790.90;;;22.08;58.07
61359;BME280;47228;46.762;23.598;2023-05-19T09:15:26;97785.63;;;22.15;55.91
61359;BME280;47228;46.762;23.598;2023-05-19T09:18:24;97791.14;;;22.19;55.98
61359;BME280;47228;46.762;23.598;2023-05-19T09:21:00;97794.88;;;22.31;55.34
61359;BME280;47228;46.762;23.598;2023-05-19T09:23:32;97793.81;;;22.43;56.52
61359;BME280;47228;46.762;23.598;2023-05-19T09:26:02;97792.70;;;22.59;54.98
61359;BME280;47228;46.762;23.598;2023-05-19T09:28:35;97792.09;;;22.72;53.75
61359;BME280;47228;46.762;23.598;2023-05-19T09:31:09;97790.23;;;22.84;52.28
61359;BME280;47228;46.762;23.598;2023-05-19T09:33:38;97790.81;;;22.93;50.46
61359;BME280;47228;46.762;23.598;2023-05-19T09:36:09;97789.73;;;22.91;49.98
61359;BME280;47228;46.762;23.598;2023-05-19T09:38:38;97786.46;;;22.81;49.33
61359;BME280;47228;46.762;23.598;2023-05-19T09:41:07;97780.19;;;22.72;49.10
61359;BME280;47228;46.762;23.598;2023-05-19T09:43:35;97776.30;;;22.62;50.21
61359;BME280;47228;46.762;23.598;2023-05-19T09:46:08;97774.38;;;22.54;50.51
61359;BME280;47228;46.762;23.598;2023-05-19T09:48:41;97774.70;;;22.48;50.51
61359;BME280;47228;46.762;23.598;2023-05-19T09:51:09;97772.00;;;22.41;49.96
61359;BME280;47228;46.762;23.598;2023-05-19T09:53:37;97769.30;;;22.35;50.64
61359;BME280;47228;46.762;23.598;2023-05-19T09:56:07;97767.66;;;22.28;49.91
61359;BME280;47228;46.762;23.598;2023-05-19T09:58:36;97764.53;;;22.27;50.14
61359;BME280;47228;46.762;23.598;2023-05-19T10:01:05;97761.84;;;22.28;51.04
61359;BME280;47228;46.762;23.598;2023-05-19T10:03:34;97754.62;;;22.26;50.56
61359;BME280;47228;46.762;23.598;2023-05-19T10:06:03;97752.36;;;22.24;50.76
61359;BME280;47228;46.762;23.598;2023-05-19T10:08:33;97748.46;;;22.21;49.85
61359;BME280;47228;46.762;23.598;2023-05-19T10:11:04;97741.74;;;22.16;49.98
61359;BME280;47228;46.762;23.598;2023-05-19T10:13:34;97735.26;;;22.13;50.74
61359;BME280;47228;46.762;23.598;2023-05-19T10:16:05;97729.63;;;22.11;50.34
61359;BME280;47228;46.762;23.598;2023-05-19T10:18:35;97728.55;;;22.03;49.53
61359;BME280;47228;46.762;23.598;2023-05-19T10:21:07;97729.25;;;21.96;49.29
61359;BME280;47228;46.762;23.598;2023-05-19T10:23:37;97728.05;;;21.92;49.82
61359;BME280;47228;46.762;23.598;2023-05-19T10:26:05;97721.07;;;21.92;49.33
61359;BME280;47228;46.762;23.598;2023-05-19T10:28:37;97718.27;;;21.96;48.71
61359;BME280;47228;46.762;23.598;2023-05-19T10:31:08;97711.84;;;22.05;46.08
61359;BME280;47228;46.762;23.598;2023-05-19T10:36:43;97704.80;;;22.07;42.73
61359;BME280;47228;46.762;23.598;2023-05-19T10:39:20;97704.59;;;22.08;41.78
61359;BME280;47228;46.762;23.598;2023-05-19T10:42:05;97702.05;;;22.07;41.55
61359;BME280;47228;46.762;23.598;2023-05-19T10:45:12;97704.52;;;22.07;42.44
61359;BME280;47228;46.762;23.598;2023-05-19T10:47:43;97696.73;;;22.14;43.24
61359;BME280;47228;46.762;23.598;2023-05-19T10:50:12;97691.29;;;22.20;42.26
61359;BME280;47228;46.762;23.598;2023-05-19T10:52:40;97692.68;;;22.27;43.46
61359;BME280;47228;46.762;23.598;2023-05-19T10:55:11;97690.29;;;22.35;42.82
61359;BME280;47228;46.762;23.598;2023-05-19T10:57:53;97690.55;;;22.42;42.74
61359;BME280;47228;46.762;23.598;2023-05-19T11:00:28;97691.41;;;22.49;43.22
61359;BME280;47228;46.762;23.598;2023-05-19T11:03:15;97696.22;;;22.67;44.49
61359;BME280;47228;46.762;23.598;2023-05-19T11:05:45;97696.25;;;22.93;43.64
61359;BME280;47228;46.762;23.598;2023-05-19T11:08:33;97692.33;;;23.28;43.07
61359;BME280;47228;46.762;23.598;2023-05-19T11:11:14;97689.31;;;23.66;43.08
61359;BME280;47228;46.762;23.598;2023-05-19T11:13:50;97693.70;;;24.06;41.84
61359;BME280;47228;46.762;23.598;2023-05-19T11:16:25;97697.41;;;24.43;40.73
61359;BME280;47228;46.762;23.598;2023-05-19T11:18:57;97696.45;;;24.80;41.01
61359;BME280;47228;46.762;23.598;2023-05-19T11:21:45;97696.70;;;25.12;40.52
61359;BME280;47228;46.762;23.598;2023-05-19T11:27:33;97686.70;;;25.62;40.38
61359;BME280;47228;46.762;23.598;2023-05-19T11:30:08;97681.88;;;25.88;39.86
61359;BME280;47228;46.762;23.598;2023-05-19T11:32:46;97677.98;;;26.13;39.27
61359;BME280;47228;46.762;23.598;2023-05-19T11:35:16;97678.21;;;26.33;38.51
61359;BME280;47228;46.762;23.598;2023-05-19T11:37:46;97677.19;;;26.48;37.08
61359;BME280;47228;46.762;23.598;2023-05-19T11:40:16;97674.16;;;26.61;36.24
61359;BME280;47228;46.762;23.598;2023-05-19T11:42:44;97674.22;;;26.81;36.46
61359;BME280;47228;46.762;23.598;2023-05-19T11:45:12;97671.23;;;26.96;34.80
61359;BME280;47228;46.762;23.598;2023-05-19T11:47:40;97667.32;;;26.92;33.88
61359;BME280;47228;46.762;23.598;2023-05-19T11:50:30;97666.81;;;26.93;36.39
61359;BME280;47228;46.762;23.598;2023-05-19T11:52:59;97669.24;;;27.05;36.96
61359;BME280;47228;46.762;23.598;2023-05-19T11:55:29;97667.52;;;27.23;35.55
61359;BME280;47228;46.762;23.598;2023-05-19T11:57:58;97664.31;;;27.35;34.74
61359;BME280;47228;46.762;23.598;2023-05-19T12:00:34;97663.19;;;27.47;33.03
61359;BME280;47228;46.762;23.598;2023-05-19T12:03:07;97661.08;;;27.51;31.70
61359;BME280;47228;46.762;23.598;2023-05-19T12:05:38;97653.89;;;27.57;31.93
61359;BME280;47228;46.762;23.598;2023-05-19T12:08:13;97655.95;;;27.60;32.22
61359;BME280;47228;46.762;23.598;2023-05-19T12:10:47;97650.02;;;27.55;33.16
61359;BME280;47228;46.762;23.598;2023-05-19T12:13:15;97652.81;;;27.49;33.36
61359;BME280;47228;46.762;23.598;2023-05-19T12:15:43;97657.38;;;27.40;32.28
61359;BME280;47228;46.762;23.598;2023-05-19T12:18:12;97650.29;;;27.25;30.36
61359;BME280;47228;46.762;23.598;2023-05-19T12:20:40;97647.11;;;27.00;30.73
61359;BME280;47228;46.762;23.598;2023-05-19T12:23:08;97644.48;;;26.78;32.66
61359;BME280;47228;46.762;23.598;2023-05-19T12:25:36;97642.33;;;26.63;33.46
61359;BME280;47228;46.762;23.598;2023-05-19T12:28:05;97638.82;;;26.53;33.47
61359;BME280;47228;46.762;23.598;2023-05-19T12:30:33;97637.93;;;26.42;33.92
61359;BME280;47228;46.762;23.598;2023-05-19T12:33:07;97637.37;;;26.34;35.10
61359;BME280;47228;46.762;23.598;2023-05-19T12:35:36;97637.91;;;26.27;34.85
61359;BME280;47228;46.762;23.598;2023-05-19T12:38:05;97640.91;;;26.20;34.42
61359;BME280;47228;46.762;23.598;2023-05-19T12:40:34;97638.92;;;26.12;34.45
61359;BME280;47228;46.762;23.598;2023-05-19T12:43:03;97636.63;;;26.04;34.10
61359;BME280;47228;46.762;23.598;2023-05-19T12:45:35;97634.58;;;25.95;34.74
61359;BME280;47228;46.762;23.598;2023-05-19T12:48:04;97634.32;;;25.88;34.77
61359;BME280;47228;46.762;23.598;2023-05-19T12:50:36;97635.63;;;25.84;35.41
61359;BME280;47228;46.762;23.598;2023-05-19T12:53:07;97636.56;;;25.80;35.06
61359;BME280;47228;46.762;23.598;2023-05-19T12:55:40;97639.48;;;25.74;34.96
61359;BME280;47228;46.762;23.598;2023-05-19T12:58:14;97631.88;;;25.66;35.39
61359;BME280;47228;46.762;23.598;2023-05-19T13:00:44;97628.81;;;25.61;35.34
61359;BME280;47228;46.762;23.598;2023-05-19T13:03:18;97634.09;;;25.57;35.73
61359;BME280;47228;46.762;23.598;2023-05-19T13:05:48;97641.06;;;25.50;35.13
61359;BME280;47228;46.762;23.598;2023-05-19T13:08:18;97644.63;;;25.44;35.19
61359;BME280;47228;46.762;23.598;2023-05-19T13:10:47;97646.62;;;25.42;35.49
61359;BME280;47228;46.762;23.598;2023-05-19T13:13:16;97650.94;;;25.45;35.77
61359;BME280;47228;46.762;23.598;2023-05-19T13:15:45;97642.31;;;25.50;34.57
61359;BME280;47228;46.762;23.598;2023-05-19T13:18:16;97636.20;;;25.57;34.96
61359;BME280;47228;46.762;23.598;2023-05-19T13:20:44;97636.13;;;25.70;36.11
61359;BME280;47228;46.762;23.598;2023-05-19T13:23:15;97641.70;;;25.82;36.31
61359;BME280;47228;46.762;23.598;2023-05-19T13:25:43;97645.39;;;25.86;35.25